createdAt,value
2022-10-10T00:01:32.059Z,11.30
2022-10-10T00:03:59.505Z,11.30
2022-10-10T00:06:29.168Z,11.30
2022-10-10T00:08:59.300Z,11.40
2022-10-10T00:11:26.019Z,11.40
2022-10-10T00:13:52.714Z,11.40
2022-10-10T00:16:20.233Z,11.50
2022-10-10T00:18:47.203Z,11.50
2022-10-10T00:21:13.913Z,11.50
2022-10-10T00:23:40.928Z,11.60
2022-10-10T00:26:09.218Z,11.60
2022-10-10T00:28:38.812Z,11.60
2022-10-10T00:31:07.433Z,11.60
2022-10-10T00:33:34.564Z,11.60
2022-10-10T00:36:01.385Z,11.60
2022-10-10T00:38:28.128Z,11.70
2022-10-10T00:40:56.319Z,11.70
2022-10-10T00:43:24.687Z,11.70
2022-10-10T00:45:51.942Z,11.80
2022-10-10T00:48:20.399Z,11.80
2022-10-10T00:50:58.199Z,11.80
2022-10-10T00:53:50.660Z,11.80
2022-10-10T00:56:25.224Z,11.80
2022-10-10T00:58:54.104Z,11.80
2022-10-10T01:01:20.824Z,11.80
2022-10-10T01:03:47.787Z,11.80
2022-10-10T01:06:14.514Z,11.80
2022-10-10T01:08:41.637Z,11.80
2022-10-10T01:11:23.463Z,11.80
2022-10-10T01:14:11.807Z,11.80
2022-10-10T01:16:59.371Z,11.80
2022-10-10T01:19:51.341Z,11.80
2022-10-10T01:22:49.273Z,11.80
2022-10-10T01:25:32.077Z,11.70
2022-10-10T01:28:17.550Z,11.70
2022-10-10T01:30:44.486Z,11.70
2022-10-10T01:33:17.101Z,11.70
2022-10-10T01:35:49.347Z,11.70
2022-10-10T01:38:35.847Z,11.60
2022-10-10T01:41:18.796Z,11.60
2022-10-10T01:43:45.660Z,11.60
2022-10-10T01:46:14.457Z,11.60
2022-10-10T01:48:42.311Z,11.60
2022-10-10T01:51:27.455Z,11.60
2022-10-10T01:54:09.365Z,11.60
2022-10-10T01:56:41.838Z,11.60
2022-10-10T01:59:18.424Z,11.70
2022-10-10T02:01:55.519Z,11.60
2022-10-10T02:04:32.872Z,11.70
2022-10-10T02:07:11.252Z,11.60
2022-10-10T02:09:39.964Z,11.70
2022-10-10T02:12:10.009Z,11.70
2022-10-10T02:14:43.543Z,11.70
2022-10-10T02:17:12.997Z,11.70
2022-10-10T02:19:43.737Z,11.70
2022-10-10T02:22:10.913Z,11.70
2022-10-10T02:24:37.637Z,11.70
2022-10-10T02:27:10.980Z,11.70
2022-10-10T02:29:38.963Z,11.70
2022-10-10T02:32:06.411Z,11.60
2022-10-10T02:34:39.103Z,11.60
2022-10-10T02:37:10.560Z,11.60
2022-10-10T02:39:42.059Z,11.60
2022-10-10T02:42:10.271Z,11.50
2022-10-10T02:44:37.596Z,11.50
2022-10-10T02:47:04.439Z,11.50
2022-10-10T02:49:33.175Z,11.40
2022-10-10T02:52:00.340Z,11.40
2022-10-10T02:54:26.993Z,11.30
2022-10-10T02:56:53.904Z,11.30
2022-10-10T02:59:20.743Z,11.30
2022-10-10T03:01:47.706Z,11.30
2022-10-10T03:04:14.560Z,11.30
2022-10-10T03:06:41.226Z,11.30
2022-10-10T03:09:08.059Z,11.40
2022-10-10T03:11:34.784Z,11.40
2022-10-10T03:14:01.456Z,11.40
2022-10-10T03:16:28.142Z,11.50
2022-10-10T03:18:55.081Z,11.50
2022-10-10T03:21:21.798Z,11.50
2022-10-10T03:23:48.528Z,11.60
2022-10-10T03:26:15.267Z,11.60
2022-10-10T03:28:42.231Z,11.60
2022-10-10T03:31:08.970Z,11.70
2022-10-10T03:33:35.745Z,11.70
2022-10-10T03:36:02.692Z,11.70
2022-10-10T03:38:29.400Z,11.80
2022-10-10T03:40:56.061Z,11.80
2022-10-10T03:43:22.827Z,11.80
2022-10-10T03:45:49.512Z,11.80
2022-10-10T03:48:16.697Z,11.80
2022-10-10T03:50:43.388Z,11.80
2022-10-10T03:53:10.567Z,11.80
2022-10-10T03:55:40.553Z,11.90
2022-10-10T03:58:07.819Z,12.00
2022-10-10T04:00:34.591Z,12.00
2022-10-10T04:03:06.102Z,12.10
2022-10-10T04:05:35.686Z,12.10
2022-10-10T04:08:02.912Z,12.20
2022-10-10T04:10:29.631Z,12.20
2022-10-10T04:12:56.558Z,12.30
2022-10-10T04:15:23.298Z,12.30
2022-10-10T04:17:49.992Z,12.40
2022-10-10T04:20:16.907Z,12.40
2022-10-10T04:22:44.131Z,12.40
2022-10-10T04:25:11.810Z,12.40
2022-10-10T04:27:38.635Z,12.40
2022-10-10T04:30:06.670Z,12.50
2022-10-10T04:32:33.383Z,12.50
2022-10-10T04:35:00.104Z,12.50
2022-10-10T04:37:26.842Z,12.50
2022-10-10T04:39:53.655Z,12.60
2022-10-10T04:42:20.372Z,12.60
2022-10-10T04:44:47.060Z,12.70
2022-10-10T04:47:13.838Z,12.70
2022-10-10T04:49:42.031Z,12.80
2022-10-10T04:52:11.951Z,12.80
2022-10-10T04:54:38.863Z,12.80
2022-10-10T04:57:05.608Z,12.70
2022-10-10T04:59:32.948Z,12.70
2022-10-10T05:02:01.910Z,12.70
2022-10-10T05:04:28.863Z,12.70
2022-10-10T05:06:55.570Z,12.70
2022-10-10T05:09:22.281Z,12.80
2022-10-10T05:11:49.064Z,12.80
2022-10-10T05:14:15.746Z,12.80
2022-10-10T05:16:42.454Z,12.90
2022-10-10T05:19:09.176Z,12.90
2022-10-10T05:21:35.946Z,13.00
2022-10-10T05:24:03.124Z,13.00
2022-10-10T05:26:29.880Z,13.00
2022-10-10T05:28:56.615Z,13.00
2022-10-10T05:31:23.304Z,13.00
2022-10-10T05:33:49.958Z,12.90
2022-10-10T05:36:16.759Z,12.90
2022-10-10T05:38:43.547Z,12.90
2022-10-10T05:41:12.550Z,12.80
2022-10-10T05:43:39.438Z,12.80
2022-10-10T05:46:06.303Z,12.70
2022-10-10T05:48:33.048Z,12.80
2022-10-10T05:51:00.587Z,12.70
2022-10-10T05:53:28.428Z,12.70
2022-10-10T05:55:55.528Z,12.70
2022-10-10T05:58:22.329Z,12.80
2022-10-10T06:00:49.097Z,12.80
2022-10-10T06:03:17.229Z,12.90
2022-10-10T06:05:45.373Z,12.90
2022-10-10T06:08:12.757Z,12.90
2022-10-10T06:10:44.667Z,13.00
2022-10-10T06:13:12.853Z,13.10
2022-10-10T06:15:40.053Z,13.20
2022-10-10T06:18:07.480Z,13.30
2022-10-10T06:20:35.628Z,13.30
2022-10-10T06:23:02.783Z,13.40
2022-10-10T06:25:39.853Z,13.40
2022-10-10T06:28:08.106Z,13.40
2022-10-10T06:30:39.095Z,13.30
2022-10-10T06:33:05.904Z,13.30
2022-10-10T06:35:32.597Z,13.20
2022-10-10T06:37:59.304Z,13.20
2022-10-10T06:40:26.112Z,13.20
2022-10-10T06:42:53.214Z,13.20
2022-10-10T06:45:20.151Z,13.20
2022-10-10T06:47:46.900Z,13.30
2022-10-10T06:50:13.699Z,13.30
2022-10-10T06:52:41.011Z,13.50
2022-10-10T06:55:08.183Z,13.50
2022-10-10T06:57:34.887Z,13.60
2022-10-10T07:00:01.928Z,13.70
2022-10-10T07:02:28.862Z,13.80
2022-10-10T07:04:55.577Z,13.90
2022-10-10T07:07:22.278Z,14.00
2022-10-10T07:09:49.034Z,14.10
2022-10-10T07:12:15.761Z,14.20
2022-10-10T07:14:42.479Z,14.30
2022-10-10T07:17:09.153Z,14.30
2022-10-10T07:19:37.740Z,14.40
2022-10-10T07:22:04.956Z,14.40
2022-10-10T07:24:31.769Z,14.50
2022-10-10T07:27:04.861Z,14.50
2022-10-10T07:29:34.829Z,14.60
2022-10-10T07:32:01.487Z,14.70
2022-10-10T07:34:28.391Z,14.80
2022-10-10T07:36:55.070Z,15.00
2022-10-10T07:39:25.906Z,15.20
2022-10-10T07:41:52.576Z,15.50
2022-10-10T07:44:20.049Z,15.70
2022-10-10T07:46:47.217Z,15.90
2022-10-10T07:49:14.015Z,16.10
2022-10-10T07:51:40.820Z,16.10
2022-10-10T07:54:07.748Z,16.30
2022-10-10T07:56:34.405Z,16.60
2022-10-10T07:59:01.206Z,16.80
2022-10-10T08:01:28.055Z,16.90
2022-10-10T08:03:57.069Z,17.10
2022-10-10T08:06:24.239Z,17.20
2022-10-10T08:08:52.188Z,17.30
2022-10-10T08:11:21.198Z,17.30
2022-10-10T08:13:47.935Z,17.40
2022-10-10T08:16:14.807Z,17.40
2022-10-10T08:18:41.563Z,17.40
2022-10-10T08:21:10.750Z,17.40
2022-10-10T08:23:37.835Z,17.30
2022-10-10T08:26:07.190Z,17.30
2022-10-10T08:28:34.662Z,17.30
2022-10-10T08:31:08.519Z,17.30
2022-10-10T08:33:35.773Z,17.20
2022-10-10T08:36:06.920Z,17.20
2022-10-10T08:38:33.815Z,17.30
2022-10-10T08:41:01.332Z,17.30
2022-10-10T08:43:40.538Z,17.40
2022-10-10T08:46:21.914Z,17.50
2022-10-10T08:48:50.445Z,17.50
2022-10-10T08:51:32.168Z,17.50
2022-10-10T08:54:00.846Z,17.60
2022-10-10T08:56:31.273Z,17.70
2022-10-10T08:59:03.649Z,17.70
2022-10-10T09:02:18.174Z,17.70
2022-10-10T09:04:25.341Z,17.70
2022-10-10T09:07:02.099Z,17.70
2022-10-10T09:09:58.072Z,17.70
2022-10-10T09:12:47.251Z,17.80
2022-10-10T09:15:15.490Z,17.90
2022-10-10T09:18:07.415Z,17.90
2022-10-10T09:20:53.154Z,18.00
2022-10-10T09:23:36.987Z,18.00
2022-10-10T09:26:11.615Z,18.00
2022-10-10T09:28:54.633Z,18.00
2022-10-10T09:31:38.824Z,18.10
2022-10-10T09:34:12.045Z,18.20
2022-10-10T09:36:38.729Z,18.30
2022-10-10T09:39:32.622Z,18.40
2022-10-10T09:42:04.673Z,18.50
2022-10-10T09:44:32.479Z,18.60
2022-10-10T09:47:00.210Z,18.70
2022-10-10T09:49:27.051Z,18.70
2022-10-10T09:51:53.821Z,18.80
2022-10-10T09:54:20.836Z,18.80
2022-10-10T09:56:56.086Z,18.90
2022-10-10T09:59:49.186Z,18.90
2022-10-10T10:02:19.669Z,18.90
2022-10-10T10:04:47.966Z,18.90
2022-10-10T10:07:32.695Z,18.90
2022-10-10T10:10:00.285Z,18.80
2022-10-10T10:12:44.280Z,18.80
2022-10-10T10:15:23.000Z,18.80
2022-10-10T10:18:09.964Z,18.80
2022-10-10T10:20:40.389Z,18.80
2022-10-10T10:23:35.909Z,18.90
2022-10-10T10:26:06.363Z,18.90
2022-10-10T10:28:40.899Z,18.90
2022-10-10T10:31:16.198Z,18.90
2022-10-10T10:33:58.063Z,18.90
2022-10-10T10:36:52.657Z,18.90
2022-10-10T10:39:24.600Z,19.00
2022-10-10T10:42:24.217Z,19.10
2022-10-10T10:45:16.558Z,19.10
2022-10-10T10:47:47.307Z,19.10
2022-10-10T10:50:26.670Z,19.20
2022-10-10T10:53:15.226Z,19.20
2022-10-10T10:56:20.035Z,19.30
2022-10-10T10:59:30.367Z,19.20
2022-10-10T11:01:58.500Z,19.30
2022-10-10T11:05:24.768Z,19.50
2022-10-10T11:07:56.676Z,19.60
2022-10-10T11:10:32.299Z,19.60
2022-10-10T11:13:09.520Z,19.70
2022-10-10T11:16:05.297Z,19.80
2022-10-10T11:18:37.038Z,19.90
2022-10-10T11:21:11.665Z,19.90
2022-10-10T11:23:43.674Z,19.70
2022-10-10T11:26:20.227Z,19.60
2022-10-10T11:28:55.654Z,19.70
2022-10-10T11:31:30.681Z,19.60
2022-10-10T11:34:06.509Z,19.50
2022-10-10T11:36:36.900Z,19.50
2022-10-10T11:39:22.808Z,19.60
2022-10-10T11:41:59.579Z,19.60
2022-10-10T11:44:31.506Z,19.70
2022-10-10T11:47:06.397Z,19.70
2022-10-10T11:49:54.183Z,19.70
2022-10-10T11:52:37.587Z,19.80
2022-10-10T11:55:06.677Z,19.80
2022-10-10T11:57:45.176Z,19.80
2022-10-10T12:00:16.258Z,19.80
2022-10-10T12:02:44.795Z,19.80
2022-10-10T12:05:23.043Z,19.90
2022-10-10T12:08:05.147Z,19.90
2022-10-10T12:10:37.557Z,20.00
2022-10-10T12:13:11.926Z,20.00
2022-10-10T12:15:42.758Z,20.00
2022-10-10T12:18:50.521Z,20.00
2022-10-10T12:21:19.272Z,19.90
2022-10-10T12:24:00.116Z,19.80
2022-10-10T12:26:52.645Z,19.80
2022-10-10T12:29:41.285Z,19.80
2022-10-10T12:32:13.885Z,19.80
2022-10-10T12:34:49.852Z,19.80
2022-10-10T12:37:29.998Z,19.90
2022-10-10T12:40:17.007Z,19.90
2022-10-10T12:42:46.666Z,19.80
2022-10-10T12:45:31.715Z,19.80
2022-10-10T12:48:05.448Z,19.80
2022-10-10T12:50:36.551Z,19.80
2022-10-10T12:53:16.432Z,19.80
2022-10-10T12:55:46.293Z,19.80
2022-10-10T12:58:27.964Z,19.80
2022-10-10T13:01:04.349Z,19.80
2022-10-10T13:03:38.183Z,19.80
2022-10-10T13:06:27.015Z,19.80
2022-10-10T13:08:54.678Z,19.90
2022-10-10T13:11:21.392Z,20.00
2022-10-10T13:13:53.934Z,20.00
2022-10-10T13:16:29.907Z,20.00
2022-10-10T13:18:59.824Z,20.00
2022-10-10T13:21:32.089Z,19.90
2022-10-10T13:24:03.675Z,19.90
2022-10-10T13:26:46.142Z,20.00
2022-10-10T13:29:23.889Z,20.00
2022-10-10T13:31:51.985Z,20.00
2022-10-10T13:34:27.048Z,20.00
2022-10-10T13:36:56.439Z,19.90
2022-10-10T13:39:23.515Z,19.90
2022-10-10T13:41:50.538Z,19.90
2022-10-10T13:44:22.756Z,19.90
2022-10-10T13:46:49.573Z,19.80
2022-10-10T13:49:22.476Z,19.80
2022-10-10T13:51:51.491Z,19.80
2022-10-10T13:54:40.162Z,19.80
2022-10-10T13:57:33.125Z,19.90
2022-10-10T14:00:04.091Z,19.90
2022-10-10T14:02:32.940Z,19.80
2022-10-10T14:05:07.787Z,19.70
2022-10-10T14:07:35.312Z,19.70
2022-10-10T14:10:08.010Z,19.70
2022-10-10T14:12:53.654Z,19.70
2022-10-10T14:15:31.120Z,19.70
2022-10-10T14:17:57.806Z,19.70
2022-10-10T14:20:24.534Z,19.70
2022-10-10T14:22:51.614Z,19.70
2022-10-10T14:25:18.392Z,19.70
2022-10-10T14:27:45.141Z,19.70
2022-10-10T14:30:14.639Z,19.70
2022-10-10T14:32:41.337Z,19.70
2022-10-10T14:35:09.132Z,19.70
2022-10-10T14:37:38.542Z,19.80
2022-10-10T14:40:20.055Z,19.90
2022-10-10T14:42:49.610Z,19.90
2022-10-10T14:45:17.562Z,19.90
2022-10-10T14:47:44.321Z,19.90
2022-10-10T14:50:16.465Z,19.90
2022-10-10T14:52:43.474Z,20.00
2022-10-10T14:55:11.223Z,19.90
2022-10-10T14:57:38.175Z,19.90
2022-10-10T15:00:14.089Z,19.70
2022-10-10T15:02:45.259Z,19.60
2022-10-10T15:05:12.771Z,19.60
2022-10-10T15:07:39.759Z,19.50
2022-10-10T15:10:32.684Z,19.40
2022-10-10T15:12:54.825Z,19.30
2022-10-10T15:15:21.725Z,19.10
2022-10-10T15:17:48.615Z,19.10
2022-10-10T15:20:15.471Z,19.00
2022-10-10T15:22:43.102Z,18.90
2022-10-10T15:25:09.945Z,18.80
2022-10-10T15:27:37.485Z,18.80
2022-10-10T15:30:05.767Z,18.80
2022-10-10T15:32:32.501Z,18.70
2022-10-10T15:34:59.389Z,18.60
2022-10-10T15:37:26.917Z,18.60
2022-10-10T15:39:54.212Z,18.60
2022-10-10T15:42:22.992Z,18.50
2022-10-10T15:44:50.670Z,18.60
2022-10-10T15:47:18.531Z,18.60
2022-10-10T15:49:45.484Z,18.50
2022-10-10T15:52:12.327Z,18.50
2022-10-10T15:54:39.124Z,18.50
2022-10-10T15:57:05.943Z,18.50
2022-10-10T15:59:33.300Z,18.50
2022-10-10T16:02:01.166Z,18.40
2022-10-10T16:04:27.903Z,18.40
2022-10-10T16:07:20.034Z,18.40
2022-10-10T16:09:41.718Z,18.30
2022-10-10T16:12:08.842Z,18.30
2022-10-10T16:14:35.776Z,18.20
2022-10-10T16:17:03.078Z,18.20
2022-10-10T16:19:29.960Z,18.20
2022-10-10T16:21:56.758Z,18.10
2022-10-10T16:24:23.590Z,18.10
2022-10-10T16:26:50.331Z,18.10
2022-10-10T16:29:18.624Z,17.90
2022-10-10T16:31:45.646Z,17.80
2022-10-10T16:34:15.109Z,17.70
2022-10-10T16:36:42.380Z,17.60
2022-10-10T16:39:09.066Z,17.40
2022-10-10T16:41:47.434Z,17.30
2022-10-10T16:44:15.285Z,17.20
2022-10-10T16:46:41.990Z,17.10
2022-10-10T16:49:10.459Z,17.00
2022-10-10T16:51:38.315Z,16.90
2022-10-10T16:54:06.376Z,16.80
2022-10-10T16:56:34.082Z,16.70
2022-10-10T16:59:01.696Z,16.60
2022-10-10T17:01:28.744Z,16.60
2022-10-10T17:03:57.506Z,16.50
2022-10-10T17:06:24.293Z,16.50
2022-10-10T17:08:53.090Z,16.50
2022-10-10T17:11:21.605Z,16.60
2022-10-10T17:13:49.023Z,16.60
2022-10-10T17:16:59.802Z,16.60
2022-10-10T17:19:08.421Z,16.70
2022-10-10T17:21:35.093Z,16.70
2022-10-10T17:24:01.781Z,16.70
2022-10-10T17:26:29.001Z,16.80
2022-10-10T17:28:57.545Z,16.80
2022-10-10T17:31:25.469Z,16.90
2022-10-10T17:33:54.634Z,16.90
2022-10-10T17:36:26.360Z,16.90
2022-10-10T17:38:55.945Z,16.90
2022-10-10T17:41:23.393Z,16.90
2022-10-10T17:43:50.357Z,16.70
2022-10-10T17:46:34.358Z,16.60
2022-10-10T17:49:02.361Z,16.40
2022-10-10T17:51:29.056Z,16.30
2022-10-10T17:53:59.210Z,16.20
2022-10-10T17:56:25.937Z,16.10
2022-10-10T17:58:52.762Z,16.00
2022-10-10T18:01:20.625Z,16.00
2022-10-10T18:03:48.312Z,15.80
2022-10-10T18:06:17.536Z,15.80
2022-10-10T18:08:46.772Z,15.80
2022-10-10T18:11:16.759Z,15.80
2022-10-10T18:13:44.073Z,15.70
2022-10-10T18:16:13.293Z,15.70
2022-10-10T18:18:41.115Z,15.70
2022-10-10T18:21:09.563Z,15.70
2022-10-10T18:23:36.888Z,15.70
2022-10-10T18:26:09.947Z,15.70
2022-10-10T18:28:39.876Z,15.70
2022-10-10T18:31:12.346Z,15.70
2022-10-10T18:33:40.350Z,15.70
2022-10-10T18:36:10.585Z,15.70
2022-10-10T18:38:40.425Z,15.80
2022-10-10T18:41:09.843Z,15.80
2022-10-10T18:43:37.019Z,15.90
2022-10-10T18:46:05.751Z,15.90
2022-10-10T18:48:32.595Z,15.90
2022-10-10T18:51:04.525Z,15.90
2022-10-10T18:53:35.361Z,15.80
2022-10-10T18:56:03.182Z,15.80
2022-10-10T18:58:35.999Z,15.70
2022-10-10T19:01:10.984Z,15.70
2022-10-10T19:03:41.782Z,15.60
2022-10-10T19:06:11.888Z,15.60
2022-10-10T19:08:39.378Z,15.50
2022-10-10T19:11:07.255Z,15.50
2022-10-10T19:13:34.341Z,15.50
2022-10-10T19:16:05.912Z,15.50
2022-10-10T19:18:33.295Z,15.40
2022-10-10T19:21:01.597Z,15.40
2022-10-10T19:23:29.091Z,15.40
2022-10-10T19:25:56.041Z,15.40
2022-10-10T19:28:22.846Z,15.50
2022-10-10T19:30:49.519Z,15.50
2022-10-10T19:33:16.295Z,15.50
2022-10-10T19:35:49.760Z,15.50
2022-10-10T19:38:19.333Z,15.60
2022-10-10T19:40:47.660Z,15.60
2022-10-10T19:43:15.990Z,15.70
2022-10-10T19:45:47.364Z,15.70
2022-10-10T19:48:18.643Z,15.70
2022-10-10T19:50:45.571Z,15.70
2022-10-10T19:53:14.702Z,15.60
2022-10-10T19:55:41.859Z,15.60
2022-10-10T19:58:08.649Z,15.60
2022-10-10T20:00:37.549Z,15.50
2022-10-10T20:03:04.393Z,15.50
2022-10-10T20:05:31.073Z,15.50
2022-10-10T20:07:57.807Z,15.40
2022-10-10T20:10:24.513Z,15.40
2022-10-10T20:12:51.202Z,15.40
2022-10-10T20:15:17.967Z,15.30
2022-10-10T20:17:44.753Z,15.30
2022-10-10T20:20:11.943Z,15.30
2022-10-10T20:22:38.974Z,15.20
2022-10-10T20:25:06.458Z,15.20
2022-10-10T20:27:34.011Z,15.20
2022-10-10T20:30:00.708Z,15.10
2022-10-10T20:32:27.406Z,15.10
2022-10-10T20:34:54.172Z,15.10
2022-10-10T20:37:20.885Z,15.10
2022-10-10T20:39:47.553Z,15.10
2022-10-10T20:42:14.210Z,15.10
2022-10-10T20:44:40.902Z,15.10
2022-10-10T20:47:07.554Z,15.00
2022-10-10T20:49:34.343Z,15.00
2022-10-10T20:52:01.014Z,15.00
2022-10-10T20:54:27.762Z,14.90
2022-10-10T20:56:54.452Z,15.00
2022-10-10T20:59:22.376Z,14.90
2022-10-10T21:01:49.221Z,14.90
2022-10-10T21:04:16.298Z,14.90
2022-10-10T21:06:43.259Z,14.90
2022-10-10T21:09:11.877Z,14.90
2022-10-10T21:11:39.718Z,14.90
2022-10-10T21:14:06.981Z,14.90
2022-10-10T21:16:39.600Z,14.80
2022-10-10T21:19:09.012Z,14.80
2022-10-10T21:21:36.664Z,14.80
2022-10-10T21:24:05.890Z,14.80
2022-10-10T21:26:32.904Z,14.80
2022-10-10T21:29:00.821Z,14.70
2022-10-10T21:31:31.372Z,14.70
2022-10-10T21:33:59.811Z,14.80
2022-10-10T21:36:26.934Z,14.70
2022-10-10T21:38:54.587Z,14.70
2022-10-10T21:41:21.678Z,14.70
2022-10-10T21:43:51.645Z,14.70
2022-10-10T21:46:24.261Z,14.70
2022-10-10T21:48:52.283Z,14.70
2022-10-10T21:51:21.223Z,14.70
2022-10-10T21:53:48.428Z,14.70
2022-10-10T21:56:15.128Z,14.60
2022-10-10T21:58:43.288Z,14.60
2022-10-10T22:01:15.226Z,14.60
2022-10-10T22:03:43.003Z,14.60
2022-10-10T22:06:12.059Z,14.60
2022-10-10T22:08:39.852Z,14.60
2022-10-10T22:11:08.916Z,14.50
2022-10-10T22:13:35.866Z,14.50
2022-10-10T22:16:03.283Z,14.50
2022-10-10T22:18:30.275Z,14.50
2022-10-10T22:20:57.364Z,14.60
2022-10-10T22:23:24.418Z,14.50
2022-10-10T22:25:51.921Z,14.50
2022-10-10T22:28:19.122Z,14.50
2022-10-10T22:30:46.321Z,14.60
2022-10-10T22:33:13.486Z,14.60
2022-10-10T22:35:40.210Z,14.50
2022-10-10T22:38:07.218Z,14.50
2022-10-10T22:40:34.094Z,14.50
2022-10-10T22:43:00.896Z,14.50
2022-10-10T22:45:27.625Z,14.50
2022-10-10T22:47:54.328Z,14.50
2022-10-10T22:50:21.159Z,14.60
2022-10-10T22:52:48.043Z,14.60
2022-10-10T22:55:18.439Z,14.60
2022-10-10T22:57:45.977Z,14.60
2022-10-10T23:00:13.252Z,14.60
2022-10-10T23:02:40.305Z,14.60
2022-10-10T23:05:07.775Z,14.60
2022-10-10T23:07:35.165Z,14.60
2022-10-10T23:10:01.886Z,14.60
2022-10-10T23:12:28.616Z,14.70
2022-10-10T23:14:55.306Z,14.70
2022-10-10T23:17:22.316Z,14.70
2022-10-10T23:19:48.985Z,14.70
2022-10-10T23:22:15.738Z,14.60
2022-10-10T23:24:42.474Z,14.70
2022-10-10T23:27:09.641Z,14.70
2022-10-10T23:29:36.351Z,14.70
2022-10-10T23:32:03.118Z,14.70
2022-10-10T23:34:29.866Z,14.70
2022-10-10T23:36:56.620Z,14.70
2022-10-10T23:39:23.281Z,14.70
2022-10-10T23:41:50.000Z,14.70
2022-10-10T23:44:16.767Z,14.70
2022-10-10T23:46:43.527Z,14.60
2022-10-10T23:49:10.535Z,14.60
2022-10-10T23:51:37.282Z,14.50
2022-10-10T23:54:04.093Z,14.90
2022-10-10T23:56:30.795Z,14.40
2022-10-10T23:58:57.458Z,14.40
